createdAt,value
2018-04-16T00:00:54.681Z,983.55
2018-04-16T00:02:01.437Z,983.75
2018-04-16T00:03:08.273Z,983.71
2018-04-16T00:04:15.147Z,983.70
2018-04-16T00:05:21.898Z,983.65
2018-04-16T00:06:28.709Z,983.63
2018-04-16T00:07:35.503Z,983.69
2018-04-16T00:08:42.261Z,983.68
2018-04-16T00:09:48.943Z,983.65
2018-04-16T00:10:55.772Z,983.66
2018-04-16T00:12:02.481Z,983.63
2018-04-16T00:13:09.227Z,983.65
2018-04-16T00:14:15.976Z,983.74
2018-04-16T00:15:22.711Z,983.77
2018-04-16T00:16:29.772Z,983.76
2018-04-16T00:17:36.502Z,983.82
2018-04-16T00:18:43.248Z,983.78
2018-04-16T00:19:49.991Z,983.75
2018-04-16T00:20:56.739Z,983.84
2018-04-16T00:22:03.488Z,983.86
2018-04-16T00:23:10.295Z,983.82
2018-04-16T00:24:17.080Z,983.84
2018-04-16T00:25:23.866Z,983.82
2018-04-16T00:26:31.532Z,983.79
2018-04-16T00:27:37.336Z,983.84
2018-04-16T00:28:44.081Z,983.78
2018-04-16T00:29:50.895Z,983.81
2018-04-16T00:30:57.752Z,983.76
2018-04-16T00:32:04.861Z,983.85
2018-04-16T00:33:11.655Z,983.86
2018-04-16T00:34:20.776Z,983.76
2018-04-16T00:35:27.739Z,983.83
2018-04-16T00:36:35.267Z,983.79
2018-04-16T00:37:45.339Z,983.80
2018-04-16T00:38:49.211Z,983.81
2018-04-16T00:39:56.044Z,983.78
2018-04-16T00:41:04.070Z,983.83
2018-04-16T00:42:12.987Z,983.82
2018-04-16T00:43:23.011Z,983.82
2018-04-16T00:44:31.832Z,983.86
2018-04-16T00:45:45.064Z,983.89
2018-04-16T00:46:53.483Z,983.88
2018-04-16T00:48:02.500Z,983.87
2018-04-16T00:49:09.747Z,983.88
2018-04-16T00:50:17.105Z,983.85
2018-04-16T00:51:23.755Z,983.94
2018-04-16T00:52:37.100Z,983.97
2018-04-16T00:53:48.196Z,983.92
2018-04-16T00:54:55.308Z,983.90
2018-04-16T00:56:06.172Z,983.93
2018-04-16T00:57:16.248Z,983.94
2018-04-16T00:58:26.157Z,983.90
2018-04-16T00:59:38.800Z,983.84
2018-04-16T01:00:45.757Z,983.91
2018-04-16T01:01:52.815Z,983.90
2018-04-16T01:02:59.516Z,983.92
2018-04-16T01:04:07.227Z,983.94
2018-04-16T01:05:14.172Z,983.89
2018-04-16T01:07:29.878Z,983.91
2018-04-16T01:08:36.622Z,983.86
2018-04-16T01:09:43.541Z,983.89
2018-04-16T01:10:51.583Z,983.82
2018-04-16T01:12:03.607Z,983.88
2018-04-16T01:13:10.496Z,983.85
2018-04-16T01:14:23.534Z,983.87
2018-04-16T01:15:30.422Z,983.84
2018-04-16T01:16:39.466Z,983.86
2018-04-16T01:17:48.494Z,983.80
2018-04-16T01:18:55.186Z,983.78
2018-04-16T01:20:03.198Z,983.88
2018-04-16T01:21:12.987Z,983.92
2018-04-16T01:22:21.305Z,983.87
2018-04-16T01:23:28.287Z,983.91
2018-04-16T01:24:40.419Z,983.91
2018-04-16T01:25:48.552Z,983.87
2018-04-16T01:26:55.498Z,983.89
2018-04-16T01:28:06.322Z,983.89
2018-04-16T01:29:18.014Z,983.89
2018-04-16T01:30:24.946Z,983.92
2018-04-16T01:31:31.938Z,983.91
2018-04-16T01:32:42.767Z,983.92
2018-04-16T01:33:51.782Z,983.97
2018-04-16T01:35:01.789Z,984.02
2018-04-16T01:36:12.679Z,983.95
2018-04-16T01:37:19.819Z,983.94
2018-04-16T01:38:30.766Z,983.94
2018-04-16T01:39:42.682Z,983.94
2018-04-16T01:40:55.427Z,983.94
2018-04-16T01:42:06.201Z,983.90
2018-04-16T01:43:13.198Z,983.96
2018-04-16T01:44:20.014Z,983.91
2018-04-16T01:45:28.235Z,983.91
2018-04-16T01:46:37.482Z,983.88
2018-04-16T01:47:45.487Z,983.97
2018-04-16T01:48:53.203Z,983.90
2018-04-16T01:50:02.246Z,983.92
2018-04-16T01:51:13.399Z,983.93
2018-04-16T01:52:21.334Z,983.89
2018-04-16T01:53:29.899Z,983.90
2018-04-16T01:54:37.094Z,983.91
2018-04-16T01:59:04.317Z,983.86
2018-04-16T02:00:13.445Z,983.91
2018-04-16T02:01:22.390Z,983.84
2018-04-16T02:02:29.470Z,983.85
2018-04-16T02:03:36.383Z,983.90
2018-04-16T02:04:45.322Z,983.92
2018-04-16T02:05:58.483Z,983.87
2018-04-16T02:07:05.405Z,983.81
2018-04-16T02:11:35.226Z,983.88
2018-04-16T02:12:42.067Z,983.83
2018-04-16T02:14:54.316Z,983.89
2018-04-16T02:16:02.177Z,983.95
2018-04-16T02:17:12.292Z,983.97
2018-04-16T02:18:19.155Z,983.91
2018-04-16T02:19:28.071Z,983.83
2018-04-16T02:20:40.130Z,983.85
2018-04-16T02:21:50.037Z,983.94
2018-04-16T02:23:03.187Z,983.97
2018-04-16T02:24:12.200Z,983.97
2018-04-16T02:25:21.163Z,984.00
2018-04-16T02:26:32.237Z,983.94
2018-04-16T02:27:49.049Z,983.87
2018-04-16T02:28:56.134Z,983.90
2018-04-16T02:30:07.285Z,983.95
2018-04-16T02:31:17.247Z,983.89
2018-04-16T02:32:24.103Z,983.87
2018-04-16T02:38:58.468Z,983.94
2018-04-16T02:40:07.434Z,983.98
2018-04-16T02:42:19.107Z,983.97
2018-04-16T02:43:26.070Z,983.93
2018-04-16T02:44:33.771Z,983.98
2018-04-16T02:45:44.875Z,984.00
2018-04-16T02:46:52.876Z,983.99
2018-04-16T02:48:05.812Z,983.90
2018-04-16T02:49:13.882Z,983.94
2018-04-16T02:50:21.791Z,983.95
2018-04-16T02:51:28.699Z,983.99
2018-04-16T02:52:41.746Z,984.06
2018-04-16T02:53:48.431Z,983.96
2018-04-16T02:54:55.267Z,983.95
2018-04-16T02:56:03.100Z,983.97
2018-04-16T02:57:10.083Z,983.91
2018-04-16T02:58:17.238Z,983.97
2018-04-16T02:59:25.429Z,983.92
2018-04-16T03:00:32.408Z,983.88
2018-04-16T03:01:39.231Z,983.85
2018-04-16T03:02:46.204Z,983.92
2018-04-16T03:03:53.139Z,983.94
2018-04-16T03:05:00.340Z,983.95
2018-04-16T03:07:12.098Z,984.00
2018-04-16T03:08:21.170Z,984.00
2018-04-16T03:09:34.221Z,984.02
2018-04-16T03:10:41.176Z,984.11
2018-04-16T03:11:48.479Z,984.06
2018-04-16T03:12:57.495Z,983.96
2018-04-16T03:14:04.471Z,983.94
2018-04-16T03:15:13.457Z,983.95
2018-04-16T03:16:26.739Z,984.00
2018-04-16T03:17:33.855Z,984.04
2018-04-16T03:18:42.879Z,984.12
2018-04-16T03:19:49.746Z,984.12
2018-04-16T03:20:59.898Z,984.12
2018-04-16T03:22:11.755Z,984.20
2018-04-16T03:23:24.833Z,984.10
2018-04-16T03:24:37.852Z,984.12
2018-04-16T03:25:45.140Z,984.16
2018-04-16T03:26:54.182Z,984.19
2018-04-16T03:28:01.170Z,984.11
2018-04-16T03:30:15.836Z,984.14
2018-04-16T03:31:22.907Z,984.19
2018-04-16T03:32:34.892Z,984.15
2018-04-16T03:33:41.899Z,984.14
2018-04-16T03:34:48.608Z,984.18
2018-04-16T03:35:55.768Z,984.09
2018-04-16T03:37:03.429Z,984.10
2018-04-16T03:38:12.484Z,984.15
2018-04-16T03:39:19.389Z,984.22
2018-04-16T03:40:26.600Z,984.15
2018-04-16T03:41:33.494Z,984.14
2018-04-16T03:42:40.515Z,984.13
2018-04-16T03:43:47.354Z,984.16
2018-04-16T03:45:00.315Z,984.22
2018-04-16T03:46:07.236Z,984.19
2018-04-16T03:47:15.194Z,984.18
2018-04-16T03:48:22.143Z,984.15
2018-04-16T03:49:28.968Z,984.21
2018-04-16T03:50:36.159Z,984.24
2018-04-16T03:51:43.062Z,984.25
2018-04-16T03:52:49.915Z,984.12
2018-04-16T03:53:56.699Z,984.19
2018-04-16T03:55:03.484Z,984.23
2018-04-16T03:56:10.321Z,984.25
2018-04-16T03:57:17.018Z,984.19
2018-04-16T03:58:23.742Z,984.24
2018-04-16T03:59:30.542Z,984.25
2018-04-16T04:00:37.261Z,984.28
2018-04-16T04:01:44.001Z,984.29
2018-04-16T04:02:50.711Z,984.26
2018-04-16T04:03:57.420Z,984.35
2018-04-16T04:05:04.163Z,984.29
2018-04-16T04:06:11.131Z,984.31
2018-04-16T04:07:17.828Z,984.26
2018-04-16T04:08:24.567Z,984.28
2018-04-16T04:09:31.628Z,984.27
2018-04-16T04:10:38.334Z,984.29
2018-04-16T04:11:45.079Z,984.32
2018-04-16T04:12:52.220Z,984.40
2018-04-16T04:13:59.041Z,984.37
2018-04-16T04:15:05.736Z,984.43
2018-04-16T04:16:12.446Z,984.40
2018-04-16T04:17:19.226Z,984.43
2018-04-16T04:18:25.954Z,984.38
2018-04-16T04:19:32.747Z,984.51
2018-04-16T04:20:39.459Z,984.46
2018-04-16T04:21:46.178Z,984.39
2018-04-16T04:22:52.910Z,984.51
2018-04-16T04:23:59.818Z,984.46
2018-04-16T04:25:09.327Z,984.41
2018-04-16T04:26:16.133Z,984.51
2018-04-16T04:27:23.069Z,984.47
2018-04-16T04:28:29.768Z,984.54
2018-04-16T04:29:39.639Z,984.51
2018-04-16T04:30:46.408Z,984.48
2018-04-16T04:31:53.134Z,984.53
2018-04-16T04:32:59.950Z,984.47
2018-04-16T04:34:06.679Z,984.45
2018-04-16T04:35:13.394Z,984.45
2018-04-16T04:36:20.192Z,984.51
2018-04-16T04:37:27.024Z,984.52
2018-04-16T04:38:33.780Z,984.60
2018-04-16T04:39:40.755Z,984.56
2018-04-16T04:40:47.487Z,984.65
2018-04-16T04:41:54.250Z,984.51
2018-04-16T04:43:00.990Z,984.59
2018-04-16T04:44:07.704Z,984.61
2018-04-16T04:45:14.597Z,984.59
2018-04-16T04:46:21.324Z,984.52
2018-04-16T04:47:28.052Z,984.57
2018-04-16T04:48:34.775Z,984.54
2018-04-16T04:49:41.587Z,984.58
2018-04-16T04:50:48.307Z,984.58
2018-04-16T04:51:55.051Z,984.61
2018-04-16T04:53:02.219Z,984.61
2018-04-16T04:54:08.897Z,984.58
2018-04-16T04:55:15.802Z,984.57
2018-04-16T04:56:22.810Z,984.61
2018-04-16T04:57:29.591Z,984.65
2018-04-16T04:58:36.336Z,984.64
2018-04-16T04:59:43.301Z,984.64
2018-04-16T05:00:50.058Z,984.73
2018-04-16T05:01:56.779Z,984.66
2018-04-16T05:03:03.559Z,984.65
2018-04-16T05:04:10.380Z,984.68
2018-04-16T05:05:17.126Z,984.59
2018-04-16T05:06:23.905Z,984.64
2018-04-16T05:07:30.799Z,984.69
2018-04-16T05:08:37.558Z,984.63
2018-04-16T05:09:44.308Z,984.62
2018-04-16T05:10:51.059Z,984.72
2018-04-16T05:11:57.823Z,984.66
2018-04-16T05:13:04.561Z,984.78
2018-04-16T05:14:11.319Z,984.70
2018-04-16T05:15:18.064Z,984.71
2018-04-16T05:16:24.884Z,984.74
2018-04-16T05:17:31.601Z,984.78
2018-04-16T05:18:38.373Z,984.75
2018-04-16T05:19:45.427Z,984.68
2018-04-16T05:20:52.223Z,984.71
2018-04-16T05:21:58.952Z,984.79
2018-04-16T05:23:05.736Z,984.71
2018-04-16T05:24:12.483Z,984.81
2018-04-16T05:25:19.259Z,984.79
2018-04-16T05:26:26.116Z,984.79
2018-04-16T05:27:32.862Z,984.75
2018-04-16T05:28:39.699Z,984.81
2018-04-16T05:29:46.424Z,984.85
2018-04-16T05:30:53.230Z,984.81
2018-04-16T05:31:59.991Z,984.81
2018-04-16T05:33:06.722Z,984.91
2018-04-16T05:34:13.493Z,984.89
2018-04-16T05:35:20.324Z,984.96
2018-04-16T05:36:27.072Z,984.93
2018-04-16T05:37:33.850Z,984.93
2018-04-16T05:38:40.608Z,984.99
2018-04-16T05:39:47.493Z,985.03
2018-04-16T05:40:54.242Z,984.98
2018-04-16T05:42:00.971Z,985.01
2018-04-16T05:43:08.076Z,985.01
2018-04-16T05:44:14.965Z,985.00
2018-04-16T05:45:21.796Z,985.00
2018-04-16T05:46:28.760Z,985.06
2018-04-16T05:47:35.522Z,985.08
2018-04-16T05:48:42.284Z,985.15
2018-04-16T05:49:49.103Z,985.11
2018-04-16T05:50:55.836Z,985.16
2018-04-16T05:52:02.587Z,985.14
2018-04-16T05:53:09.330Z,985.12
2018-04-16T05:54:16.123Z,985.13
2018-04-16T05:55:22.907Z,985.23
2018-04-16T05:56:29.669Z,985.25
2018-04-16T05:57:36.386Z,985.24
2018-04-16T05:58:43.168Z,985.26
2018-04-16T05:59:49.863Z,985.23
2018-04-16T06:00:56.603Z,985.26
2018-04-16T06:02:03.316Z,985.26
2018-04-16T06:03:10.047Z,985.23
2018-04-16T06:04:16.743Z,985.28
2018-04-16T06:05:23.706Z,985.26
2018-04-16T06:06:30.516Z,985.33
2018-04-16T06:07:37.354Z,985.27
2018-04-16T06:08:44.075Z,985.28
2018-04-16T06:09:50.867Z,985.27
2018-04-16T06:10:57.631Z,985.31
2018-04-16T06:12:04.375Z,985.34
2018-04-16T06:13:11.120Z,985.34
2018-04-16T06:14:17.835Z,985.31
2018-04-16T06:15:24.566Z,985.32
2018-04-16T06:16:31.303Z,985.34
2018-04-16T06:17:38.063Z,985.36
2018-04-16T06:18:44.794Z,985.33
2018-04-16T06:19:51.512Z,985.41
2018-04-16T06:20:58.276Z,985.44
2018-04-16T06:22:05.072Z,985.45
2018-04-16T06:23:11.799Z,985.45
2018-04-16T06:24:18.583Z,985.45
2018-04-16T06:25:25.329Z,985.40
2018-04-16T06:26:32.118Z,985.46
2018-04-16T06:27:38.871Z,985.39
2018-04-16T06:28:45.579Z,985.44
2018-04-16T06:29:52.489Z,985.53
2018-04-16T06:30:59.219Z,985.49
2018-04-16T06:32:06.086Z,985.52
2018-04-16T06:33:12.888Z,985.48
2018-04-16T06:34:19.595Z,985.44
2018-04-16T06:35:26.312Z,985.51
2018-04-16T06:36:33.107Z,985.54
2018-04-16T06:37:39.818Z,985.57
2018-04-16T06:38:46.832Z,985.59
2018-04-16T06:39:53.268Z,985.57
2018-04-16T06:40:59.991Z,985.63
2018-04-16T06:42:06.815Z,985.61
2018-04-16T06:43:13.553Z,985.57
2018-04-16T06:44:20.295Z,985.62
2018-04-16T06:45:27.063Z,985.67
2018-04-16T06:46:33.775Z,985.63
2018-04-16T06:47:40.607Z,985.68
2018-04-16T06:48:47.388Z,985.66
2018-04-16T06:49:54.083Z,985.67
2018-04-16T06:51:00.823Z,985.73
2018-04-16T06:52:07.540Z,985.72
2018-04-16T06:53:14.320Z,985.72
2018-04-16T06:54:21.115Z,985.70
2018-04-16T06:55:27.852Z,985.71
2018-04-16T06:56:34.607Z,985.67
2018-04-16T06:57:41.532Z,985.69
2018-04-16T06:58:48.316Z,985.72
2018-04-16T06:59:55.068Z,985.70
2018-04-16T07:01:01.908Z,985.72
2018-04-16T07:02:08.697Z,985.75
2018-04-16T07:03:15.475Z,985.79
2018-04-16T07:04:27.469Z,985.76
2018-04-16T07:05:34.276Z,985.81
2018-04-16T07:06:41.048Z,985.75
2018-04-16T07:07:47.921Z,985.81
2018-04-16T07:08:49.695Z,985.82
2018-04-16T07:09:56.436Z,985.79
2018-04-16T07:11:03.178Z,985.83
2018-04-16T07:12:09.957Z,985.92
2018-04-16T07:13:16.695Z,985.92
2018-04-16T07:14:23.460Z,985.93
2018-04-16T07:15:30.219Z,985.91
2018-04-16T07:16:36.996Z,985.88
2018-04-16T07:17:43.821Z,985.79
2018-04-16T07:18:50.582Z,985.82
2018-04-16T07:19:57.427Z,985.80
2018-04-16T07:21:04.263Z,985.85
2018-04-16T07:22:10.993Z,985.87
2018-04-16T07:23:17.831Z,985.84
2018-04-16T07:24:24.628Z,985.90
2018-04-16T07:25:31.676Z,985.90
2018-04-16T07:26:43.690Z,985.91
2018-04-16T07:27:45.483Z,985.90
2018-04-16T07:28:52.218Z,985.88
2018-04-16T07:29:59.183Z,985.90
2018-04-16T07:31:05.928Z,985.98
2018-04-16T07:32:12.829Z,985.92
2018-04-16T07:33:19.469Z,985.94
2018-04-16T07:34:26.380Z,986.00
2018-04-16T07:35:33.158Z,986.01
2018-04-16T07:36:39.939Z,986.07
2018-04-16T07:37:46.707Z,986.00
2018-04-16T07:38:53.455Z,986.07
2018-04-16T07:40:00.339Z,986.00
2018-04-16T07:41:07.191Z,986.03
2018-04-16T07:42:14.012Z,985.99
2018-04-16T07:43:20.847Z,986.03
2018-04-16T07:44:27.701Z,986.10
2018-04-16T07:45:34.799Z,985.97
2018-04-16T07:46:41.696Z,986.09
2018-04-16T07:47:48.558Z,986.07
2018-04-16T07:48:55.346Z,986.02
2018-04-16T07:50:02.085Z,986.04
2018-04-16T07:51:08.888Z,986.03
2018-04-16T07:52:15.659Z,986.03
2018-04-16T07:53:22.514Z,986.06
2018-04-16T07:54:29.255Z,986.06
2018-04-16T07:55:36.052Z,986.01
2018-04-16T07:56:42.831Z,986.08
2018-04-16T07:57:49.599Z,986.03
2018-04-16T07:58:56.346Z,986.06
2018-04-16T08:00:03.065Z,986.06
2018-04-16T08:01:09.820Z,986.05
2018-04-16T08:02:16.664Z,986.10
2018-04-16T08:03:23.399Z,986.09
2018-04-16T08:04:30.140Z,986.10
2018-04-16T08:05:37.175Z,986.22
2018-04-16T08:06:43.947Z,986.17
2018-04-16T08:07:50.735Z,986.27
2018-04-16T08:08:57.507Z,986.23
2018-04-16T08:10:04.231Z,986.25
2018-04-16T08:11:11.018Z,986.23
2018-04-16T08:12:17.936Z,986.25
2018-04-16T08:13:24.731Z,986.24
2018-04-16T08:14:31.966Z,986.22
2018-04-16T08:15:38.806Z,986.32
2018-04-16T08:16:50.854Z,986.28
2018-04-16T08:17:52.590Z,986.26
2018-04-16T08:18:59.355Z,986.22
2018-04-16T08:20:06.113Z,986.30
2018-04-16T08:21:18.097Z,986.27
2018-04-16T08:22:19.883Z,986.25
2018-04-16T08:23:26.651Z,986.31
2018-04-16T08:24:33.447Z,986.30
2018-04-16T08:25:45.368Z,986.31
2018-04-16T08:26:47.388Z,986.30
2018-04-16T08:27:54.185Z,986.28
2018-04-16T08:29:01.030Z,986.30
2018-04-16T08:30:07.818Z,986.30
2018-04-16T08:31:14.582Z,986.34
2018-04-16T08:32:21.475Z,986.32
2018-04-16T08:33:28.279Z,986.38
2018-04-16T08:34:35.031Z,986.46
2018-04-16T08:35:41.887Z,986.47
2018-04-16T08:36:48.790Z,986.38
2018-04-16T08:37:55.658Z,986.44
2018-04-16T08:39:02.408Z,986.38
2018-04-16T08:40:09.514Z,986.40
2018-04-16T08:41:16.270Z,986.38
2018-04-16T08:42:23.023Z,986.44
2018-04-16T08:43:29.857Z,986.45
2018-04-16T08:44:36.631Z,986.37
2018-04-16T08:45:43.390Z,986.38
2018-04-16T08:46:50.236Z,986.38
2018-04-16T08:47:57.064Z,986.36
2018-04-16T08:49:03.833Z,986.41
2018-04-16T08:50:10.644Z,986.45
2018-04-16T08:51:17.410Z,986.38
2018-04-16T08:52:24.178Z,986.34
2018-04-16T08:53:31.038Z,986.36
2018-04-16T08:54:42.979Z,986.42
2018-04-16T08:55:49.738Z,986.42
2018-04-16T08:56:56.783Z,986.41
2018-04-16T08:58:03.499Z,986.39
2018-04-16T08:59:05.347Z,986.49
2018-04-16T09:00:17.328Z,986.50
2018-04-16T09:01:19.136Z,986.49
2018-04-16T09:02:31.069Z,986.56
2018-04-16T09:03:37.907Z,986.46
2018-04-16T09:04:39.767Z,986.53
2018-04-16T09:05:51.838Z,986.54
2018-04-16T09:06:53.771Z,986.53
2018-04-16T09:08:05.772Z,986.61
2018-04-16T09:09:12.795Z,986.56
2018-04-16T09:10:14.642Z,986.61
2018-04-16T09:11:26.612Z,986.64
2018-04-16T09:12:28.435Z,986.74
2018-04-16T09:13:40.239Z,986.68
2018-04-16T09:14:47.314Z,986.72
2018-04-16T09:15:49.223Z,986.69
2018-04-16T09:17:01.196Z,986.68
2018-04-16T09:18:08.224Z,986.67
2018-04-16T09:19:09.976Z,986.70
2018-04-16T09:20:16.843Z,986.66
2018-04-16T09:21:23.628Z,986.69
2018-04-16T09:22:30.428Z,986.69
2018-04-16T09:23:37.323Z,986.64
2018-04-16T09:24:44.137Z,986.70
2018-04-16T09:25:50.994Z,986.63
2018-04-16T09:26:57.766Z,986.60
2018-04-16T09:28:04.584Z,986.63
2018-04-16T09:29:11.424Z,986.57
2018-04-16T09:30:18.151Z,986.64
2018-04-16T09:31:24.912Z,986.58
2018-04-16T09:32:36.888Z,986.65
2018-04-16T09:33:38.751Z,986.66
2018-04-16T09:34:45.575Z,986.58
2018-04-16T09:35:52.355Z,986.69
2018-04-16T09:36:59.070Z,986.73
2018-04-16T09:38:05.831Z,986.79
2018-04-16T09:39:12.579Z,986.65
2018-04-16T09:40:19.340Z,986.64
2018-04-16T09:41:26.109Z,986.69
2018-04-16T09:42:32.855Z,986.68
2018-04-16T09:43:39.590Z,986.66
2018-04-16T09:44:46.334Z,986.64
2018-04-16T09:45:53.106Z,986.65
2018-04-16T09:46:59.867Z,986.65
2018-04-16T09:48:06.638Z,986.65
2018-04-16T09:49:13.415Z,986.67
2018-04-16T09:50:20.254Z,986.66
2018-04-16T09:51:27.082Z,986.69
2018-04-16T09:52:33.820Z,986.72
2018-04-16T09:53:40.640Z,986.65
2018-04-16T09:54:47.471Z,986.66
2018-04-16T09:55:54.388Z,986.74
2018-04-16T09:57:01.251Z,986.81
2018-04-16T09:58:08.047Z,986.74
2018-04-16T09:59:14.802Z,986.71
2018-04-16T10:00:21.560Z,986.75
2018-04-16T10:01:28.537Z,986.81
2018-04-16T10:02:35.319Z,986.79
2018-04-16T10:03:42.217Z,986.74
2018-04-16T10:04:49.251Z,986.82
2018-04-16T10:05:56.025Z,986.80
2018-04-16T10:07:02.846Z,986.79
2018-04-16T10:08:09.672Z,986.77
2018-04-16T10:09:16.479Z,986.77
2018-04-16T10:10:23.255Z,986.69
2018-04-16T10:11:30.130Z,986.68
2018-04-16T10:12:36.927Z,986.66
2018-04-16T10:13:43.668Z,986.73
2018-04-16T10:14:50.399Z,986.72
2018-04-16T10:15:57.468Z,986.67
2018-04-16T10:17:04.223Z,986.66
2018-04-16T10:18:10.986Z,986.63
2018-04-16T10:19:22.874Z,986.73
2018-04-16T10:20:24.592Z,986.73
2018-04-16T10:21:31.488Z,986.76
2018-04-16T10:22:38.251Z,986.76
2018-04-16T10:23:44.986Z,986.72
2018-04-16T10:24:51.840Z,986.74
2018-04-16T10:25:58.618Z,986.78
2018-04-16T10:27:05.387Z,986.71
2018-04-16T10:28:12.239Z,986.77
2018-04-16T10:29:19.341Z,986.85
2018-04-16T10:30:26.132Z,986.88
2018-04-16T10:31:32.884Z,986.83
2018-04-16T10:32:39.829Z,986.84
2018-04-16T10:33:46.599Z,986.87
2018-04-16T10:34:53.351Z,986.92
2018-04-16T10:36:00.238Z,986.90
2018-04-16T10:37:06.988Z,986.94
2018-04-16T10:38:13.780Z,986.92
2018-04-16T10:39:20.656Z,986.93
2018-04-16T10:40:27.423Z,986.87
2018-04-16T10:41:34.200Z,986.84
2018-04-16T10:42:40.946Z,986.84
2018-04-16T10:43:47.709Z,986.91
2018-04-16T10:44:54.527Z,986.88
2018-04-16T10:46:01.292Z,986.92
2018-04-16T10:47:13.283Z,986.87
2018-04-16T10:48:15.032Z,986.89
2018-04-16T10:49:21.906Z,986.93
2018-04-16T10:50:28.659Z,986.90
2018-04-16T10:51:35.403Z,986.90
2018-04-16T10:52:42.200Z,986.89
2018-04-16T10:53:48.970Z,986.91
2018-04-16T10:54:56.020Z,986.87
2018-04-16T10:56:03.096Z,986.94
2018-04-16T10:57:09.367Z,986.90
2018-04-16T10:58:16.214Z,986.97
2018-04-16T10:59:23.022Z,986.98
2018-04-16T11:00:29.819Z,986.98
2018-04-16T11:01:36.581Z,987.04
2018-04-16T11:02:43.371Z,986.95
2018-04-16T11:03:50.239Z,986.97
2018-04-16T11:04:57.033Z,986.97
2018-04-16T11:06:03.855Z,986.93
2018-04-16T11:07:10.636Z,986.94
2018-04-16T11:08:17.427Z,986.91
2018-04-16T11:09:24.200Z,986.91
2018-04-16T11:10:31.074Z,986.93
2018-04-16T11:11:37.822Z,986.92
2018-04-16T11:12:49.922Z,986.93
2018-04-16T11:13:51.736Z,986.92
2018-04-16T11:14:58.617Z,986.85
2018-04-16T11:16:05.366Z,986.86
2018-04-16T11:17:12.145Z,986.85
2018-04-16T11:18:19.027Z,986.87
2018-04-16T11:19:31.068Z,986.86
2018-04-16T11:20:32.835Z,986.93
2018-04-16T11:21:39.614Z,986.83
2018-04-16T11:22:46.379Z,986.87
2018-04-16T11:23:53.338Z,986.85
2018-04-16T11:25:00.189Z,986.91
2018-04-16T11:26:07.030Z,986.85
2018-04-16T11:27:13.853Z,986.90
2018-04-16T11:28:20.687Z,986.93
2018-04-16T11:29:27.589Z,986.81
2018-04-16T11:30:34.420Z,986.88
2018-04-16T11:31:41.202Z,986.84
2018-04-16T11:32:48.182Z,986.86
2018-04-16T11:33:54.979Z,986.89
2018-04-16T11:35:01.752Z,986.91
2018-04-16T11:36:08.775Z,986.91
2018-04-16T11:37:15.587Z,986.93
2018-04-16T11:38:22.650Z,986.96
2018-04-16T11:39:29.662Z,986.95
2018-04-16T11:40:36.206Z,986.91
2018-04-16T11:41:43.142Z,986.92
2018-04-16T11:42:49.915Z,986.95
2018-04-16T11:43:56.933Z,986.97
2018-04-16T11:45:03.880Z,987.07
2018-04-16T11:46:11.260Z,986.97
2018-04-16T11:47:17.700Z,986.99
2018-04-16T11:48:24.472Z,987.04
2018-04-16T11:49:31.267Z,987.06
2018-04-16T11:50:38.151Z,987.05
2018-04-16T11:51:44.920Z,987.09
2018-04-16T11:52:51.759Z,987.10
2018-04-16T11:53:58.576Z,987.11
2018-04-16T11:55:05.378Z,987.13
2018-04-16T11:56:12.127Z,987.11
2018-04-16T11:57:18.849Z,987.15
2018-04-16T11:58:25.660Z,987.13
2018-04-16T11:59:32.624Z,987.10
2018-04-16T12:00:39.451Z,987.03
2018-04-16T12:01:46.183Z,987.07
2018-04-16T12:02:53.255Z,986.97
2018-04-16T12:04:00.020Z,987.16
2018-04-16T12:05:06.788Z,987.10
2018-04-16T12:06:13.918Z,987.18
2018-04-16T12:07:20.816Z,987.15
2018-04-16T12:08:27.600Z,987.11
2018-04-16T12:09:34.359Z,987.04
2018-04-16T12:10:41.266Z,987.10
2018-04-16T12:11:53.212Z,987.00
2018-04-16T12:12:55.019Z,987.06
2018-04-16T12:14:01.781Z,986.98
2018-04-16T12:15:08.522Z,987.01
2018-04-16T12:16:15.346Z,987.00
2018-04-16T12:17:22.112Z,987.09
2018-04-16T12:18:28.918Z,987.09
2018-04-16T12:19:35.674Z,987.23
2018-04-16T12:20:42.481Z,987.16
2018-04-16T12:21:49.203Z,987.20
2018-04-16T12:22:55.935Z,987.17
2018-04-16T12:24:02.727Z,987.12
2018-04-16T12:24:20.916Z,987.01
2018-04-16T12:25:27.820Z,987.17
2018-04-16T12:26:34.617Z,987.09
2018-04-16T12:27:41.591Z,987.14
2018-04-16T12:28:48.287Z,987.14
2018-04-16T12:29:55.017Z,987.15
2018-04-16T12:31:01.886Z,987.09
2018-04-16T12:32:08.651Z,987.07
2018-04-16T12:33:15.391Z,987.06
2018-04-16T12:34:22.251Z,987.08
2018-04-16T12:35:29.048Z,987.21
2018-04-16T12:36:35.810Z,987.20
2018-04-16T12:37:42.546Z,987.18
2018-04-16T12:38:49.339Z,987.17
2018-04-16T12:39:56.098Z,987.18
2018-04-16T12:41:02.869Z,987.23
2018-04-16T12:42:09.628Z,987.23
2018-04-16T12:43:16.490Z,987.18
2018-04-16T12:44:23.248Z,987.26
2018-04-16T12:45:29.996Z,987.29
2018-04-16T12:46:36.792Z,987.27
2018-04-16T12:47:43.591Z,987.27
2018-04-16T12:48:50.359Z,987.32
2018-04-16T12:49:57.223Z,987.27
2018-04-16T12:51:03.974Z,987.34
2018-04-16T12:52:10.755Z,987.23
2018-04-16T12:53:17.492Z,987.23
2018-04-16T12:54:24.268Z,987.22
2018-04-16T12:55:31.051Z,987.28
2018-04-16T12:56:37.826Z,987.23
2018-04-16T12:57:45.031Z,987.35
2018-04-16T12:58:51.868Z,987.27
2018-04-16T12:59:58.612Z,987.30
2018-04-16T13:01:05.379Z,987.29
2018-04-16T13:02:12.113Z,987.36
2018-04-16T13:03:18.956Z,987.34
2018-04-16T13:04:25.667Z,987.35
2018-04-16T13:05:32.428Z,987.30
2018-04-16T13:06:39.197Z,987.38
2018-04-16T13:07:46.075Z,987.40
2018-04-16T13:08:52.993Z,987.37
2018-04-16T13:09:59.844Z,987.39
2018-04-16T13:11:06.625Z,987.40
2018-04-16T13:12:13.402Z,987.44
2018-04-16T13:13:20.251Z,987.43
2018-04-16T13:14:26.996Z,987.39
2018-04-16T13:15:33.727Z,987.43
2018-04-16T13:16:40.471Z,987.45
2018-04-16T13:17:47.325Z,987.46
2018-04-16T13:18:54.120Z,987.51
2018-04-16T13:20:00.862Z,987.53
2018-04-16T13:21:13.060Z,987.58
2018-04-16T13:22:14.853Z,987.58
2018-04-16T13:23:26.803Z,987.58
2018-04-16T13:24:28.695Z,987.56
2018-04-16T13:25:35.519Z,987.57
2018-04-16T13:26:42.286Z,987.59
2018-04-16T13:27:49.165Z,987.53
2018-04-16T13:28:55.976Z,987.57
2018-04-16T13:30:07.981Z,987.50
2018-04-16T13:31:09.743Z,987.58
2018-04-16T13:32:16.497Z,987.52
2018-04-16T13:33:23.302Z,987.56
2018-04-16T13:34:30.062Z,987.55
2018-04-16T13:35:36.832Z,987.57
2018-04-16T13:36:43.587Z,987.52
2018-04-16T13:37:50.374Z,987.49
2018-04-16T13:38:57.176Z,987.54
2018-04-16T13:40:03.914Z,987.50
2018-04-16T13:41:10.679Z,987.54
2018-04-16T13:42:17.474Z,987.54
2018-04-16T13:43:24.218Z,987.55
2018-04-16T13:44:30.992Z,987.53
2018-04-16T13:45:37.711Z,987.54
2018-04-16T13:46:44.551Z,987.54
2018-04-16T13:47:51.289Z,987.60
2018-04-16T13:48:58.028Z,987.59
2018-04-16T13:50:04.803Z,987.59
2018-04-16T13:51:11.613Z,987.66
2018-04-16T13:52:18.318Z,987.63
2018-04-16T13:53:25.080Z,987.54
2018-04-16T13:54:31.843Z,987.52
2018-04-16T13:55:38.727Z,987.58
2018-04-16T13:56:45.470Z,987.47
2018-04-16T13:57:52.231Z,987.48
2018-04-16T13:58:58.964Z,987.52
2018-04-16T14:00:05.794Z,987.49
2018-04-16T14:01:12.556Z,987.46
2018-04-16T14:02:19.317Z,987.58
2018-04-16T14:03:26.059Z,987.61
2018-04-16T14:04:32.871Z,987.55
2018-04-16T14:05:39.616Z,987.65
2018-04-16T14:06:46.373Z,987.65
2018-04-16T14:07:53.115Z,987.63
2018-04-16T14:08:59.943Z,987.67
2018-04-16T14:10:06.775Z,987.65
2018-04-16T14:11:13.767Z,987.64
2018-04-16T14:12:20.523Z,987.65
2018-04-16T14:13:27.581Z,987.70
2018-04-16T14:14:34.316Z,987.64
2018-04-16T14:15:41.122Z,987.72